Time;durP1;ratioP1;P1;durP2;ratioP2;P2;SDS_P1;SDS_P2;PMS_P1;PMS_P2;Temp;Humidity;BMP_temperature;BMP_pressure;BME280_temperature;BME280_humidity;BME280_pressure;Samples;Min_cycle;Max_cycle;Signal;HPM_P1;HPM_P2
2022/05/29 00:01:48;;;;;;;2.50;1.50;;;10.90;76.30;;;;;;605255;237;26560;-71
2022/05/29 00:04:15;;;;;;;3.17;1.60;;;10.90;77.90;;;;;;605259;237;26585;-71
2022/05/29 00:06:43;;;;;;;2.05;1.20;;;10.80;78.90;;;;;;605149;237;26554;-71
2022/05/29 00:09:10;;;;;;;3.47;1.60;;;10.70;79.90;;;;;;604956;237;26597;-71
2022/05/29 00:11:37;;;;;;;3.40;1.42;;;10.70;80.50;;;;;;604929;237;26831;-71
2022/05/29 00:14:04;;;;;;;3.85;1.55;;;10.60;81.20;;;;;;605007;237;26586;-71
2022/05/29 00:16:32;;;;;;;2.75;1.42;;;10.60;81.20;;;;;;604963;238;26808;-71
2022/05/29 00:18:59;;;;;;;3.33;1.58;;;10.60;81.80;;;;;;604986;238;26547;-71
2022/05/29 00:21:26;;;;;;;3.25;1.23;;;10.50;82.40;;;;;;604976;237;26788;-70
2022/05/29 00:23:53;;;;;;;2.30;1.52;;;10.40;83.60;;;;;;604955;237;26583;-70
2022/05/29 00:26:20;;;;;;;3.70;1.35;;;10.40;82.90;;;;;;604645;238;26824;-70
2022/05/29 00:28:48;;;;;;;3.75;1.58;;;10.40;82.20;;;;;;604603;237;26587;-71
2022/05/29 00:31:15;;;;;;;2.87;1.50;;;10.40;82.50;;;;;;604538;238;26590;-71
2022/05/29 00:33:43;;;;;;;3.20;1.65;;;10.40;81.90;;;;;;604624;237;26593;-70
2022/05/29 00:36:11;;;;;;;2.35;1.50;;;10.40;82.00;;;;;;604631;238;26579;-70
2022/05/29 00:38:39;;;;;;;4.10;1.55;;;10.40;82.10;;;;;;604537;238;26590;-71
2022/05/29 00:41:17;;;;;;;2.72;1.58;;;10.40;82.10;;;;;;604631;237;26578;-71
2022/05/29 00:43:39;;;;;;;2.90;1.45;;;10.40;81.60;;;;;;605698;233;26617;-71
2022/05/29 00:46:07;;;;;;;2.65;1.40;;;10.40;81.10;;;;;;605740;237;26654;-71
2022/05/29 00:48:35;;;;;;;2.80;1.50;;;10.50;80.20;;;;;;605455;237;26626;-71
2022/05/29 00:51:03;;;;;;;2.35;1.25;;;10.50;79.30;;;;;;605413;237;26592;-71
2022/05/29 00:53:30;;;;;;;3.33;1.50;;;10.50;79.30;;;;;;604906;237;26665;-71
2022/05/29 00:55:59;;;;;;;1.92;1.35;;;10.50;79.10;;;;;;605163;238;26622;-72
2022/05/29 00:58:27;;;;;;;2.78;1.30;;;10.50;79.30;;;;;;604825;238;26903;-71
2022/05/29 01:00:54;;;;;;;3.75;1.73;;;10.50;79.20;;;;;;605052;232;26600;-72
2022/05/29 01:03:21;;;;;;;1.98;1.30;;;10.60;78.30;;;;;;604900;237;26824;-72
2022/05/29 01:05:48;;;;;;;2.37;1.58;;;10.50;78.20;;;;;;604871;237;26582;-72
2022/05/29 01:08:20;;;;;;;2.90;1.25;;;10.50;77.70;;;;;;604922;237;26789;-72
2022/05/29 01:11:04;;;;;;;1.50;1.40;;;10.50;77.70;;;;;;604751;237;26599;-72
2022/05/29 01:13:37;;;;;;;3.08;1.17;;;10.50;77.50;;;;;;603539;238;26610;-72
2022/05/29 01:16:13;;;;;;;1.50;1.35;;;10.50;77.10;;;;;;604395;238;26903;-72
2022/05/29 01:18:41;;;;;;;3.53;1.58;;;10.50;77.30;;;;;;604328;238;26594;-72
2022/05/29 01:21:20;;;;;;;2.58;1.42;;;10.50;77.50;;;;;;604126;238;26603;-72
2022/05/29 01:24:07;;;;;;;3.55;1.58;;;10.40;77.40;;;;;;604962;238;26563;-72
2022/05/29 01:26:57;;;;;;;3.60;1.30;;;10.40;77.40;;;;;;604395;238;26803;-72
2022/05/29 01:29:19;;;;;;;2.42;1.20;;;10.40;77.80;;;;;;604524;232;26557;-72
2022/05/29 01:31:51;;;;;;;3.70;1.37;;;10.30;78.00;;;;;;604077;238;26581;-72
2022/05/29 01:34:35;;;;;;;2.20;1.10;;;10.30;78.00;;;;;;604524;238;26595;-72
2022/05/29 01:37:09;;;;;;;2.58;1.58;;;10.30;78.20;;;;;;602995;238;26613;-72
2022/05/29 01:39:36;;;;;;;2.75;1.65;;;10.30;78.50;;;;;;604252;238;26670;-72
2022/05/29 01:42:08;;;;;;;2.22;1.37;;;10.30;78.60;;;;;;604457;237;26593;-71
2022/05/29 01:44:40;;;;;;;2.00;1.30;;;10.40;78.70;;;;;;604089;238;26583;-73
2022/05/29 01:47:08;;;;;;;3.10;1.80;;;10.40;78.60;;;;;;604527;237;26601;-71
2022/05/29 01:49:35;;;;;;;3.00;1.25;;;10.40;78.80;;;;;;604081;238;27236;-72
2022/05/29 01:52:04;;;;;;;2.58;1.48;;;10.40;79.10;;;;;;603946;238;26583;-72
2022/05/29 01:54:46;;;;;;;2.42;1.10;;;10.40;79.40;;;;;;605284;235;27140;-72
2022/05/29 01:57:14;;;;;;;2.42;1.30;;;10.30;79.80;;;;;;601380;237;26892;-72
2022/05/29 01:59:44;;;;;;;2.30;1.37;;;10.30;79.80;;;;;;605224;237;26852;-72
2022/05/29 02:02:12;;;;;;;2.53;1.45;;;10.40;80.00;;;;;;604238;237;26586;-72
2022/05/29 02:04:39;;;;;;;3.85;1.70;;;10.40;79.80;;;;;;605086;237;26644;-72
2022/05/29 02:09:40;;;;;;;2.37;1.12;;;10.40;79.60;;;;;;605208;238;26890;-72
2022/05/29 02:12:09;;;;;;;3.28;1.50;;;10.40;79.80;;;;;;604923;238;26618;-72
2022/05/29 02:14:36;;;;;;;2.62;1.20;;;10.40;79.10;;;;;;604492;238;26634;-71
2022/05/29 02:17:09;;;;;;;3.92;1.60;;;10.40;79.00;;;;;;604794;238;26590;-67
2022/05/29 02:19:37;;;;;;;8.63;1.83;;;10.40;79.00;;;;;;604418;238;26832;-67
2022/05/29 02:22:10;;;;;;;8.23;1.90;;;10.40;79.30;;;;;;604529;238;26589;-72
2022/05/29 02:24:38;;;;;;;4.87;1.65;;;10.40;79.20;;;;;;604748;238;26603;-72
2022/05/29 02:27:11;;;;;;;2.33;1.73;;;10.40;79.10;;;;;;604752;238;26594;-72
2022/05/29 02:29:39;;;;;;;2.42;1.35;;;10.40;79.40;;;;;;604902;238;26579;-72
2022/05/29 02:32:21;;;;;;;1.98;1.30;;;10.30;79.20;;;;;;604556;237;26592;-72
2022/05/29 02:35:11;;;;;;;4.12;1.20;;;10.30;79.30;;;;;;604261;238;26622;-73
2022/05/29 02:37:42;;;;;;;2.10;1.20;;;10.40;79.30;;;;;;600484;238;26610;-72
2022/05/29 02:40:13;;;;;;;1.42;1.10;;;10.50;78.80;;;;;;604286;238;26816;-72
2022/05/29 02:42:51;;;;;;;2.17;1.25;;;10.50;78.20;;;;;;603822;238;26586;-73
2022/05/29 02:45:21;;;;;;;1.33;1.17;;;10.60;77.80;;;;;;604190;234;26626;-73
2022/05/29 02:47:53;;;;;;;2.08;1.40;;;10.50;77.40;;;;;;604115;238;26582;-73
2022/05/29 02:50:21;;;;;;;1.40;1.25;;;10.60;77.30;;;;;;604050;238;26630;-73
2022/05/29 02:52:51;;;;;;;5.43;1.50;;;10.60;77.20;;;;;;604071;238;26583;-73
2022/05/29 02:55:17;;;;;;;1.95;1.40;;;10.70;77.00;;;;;;604543;234;26613;-73
2022/05/29 02:57:45;;;;;;;3.90;1.70;;;10.60;77.00;;;;;;604598;237;26587;-67
2022/05/29 03:00:15;;;;;;;3.00;1.40;;;10.50;77.40;;;;;;604574;237;26614;-67
2022/05/29 03:02:43;;;;;;;1.10;0.98;;;10.50;77.30;;;;;;604556;238;26600;-67
2022/05/29 03:05:20;;;;;;;3.12;1.55;;;10.50;77.70;;;;;;604193;234;26612;-67
2022/05/29 03:07:53;;;;;;;3.00;1.42;;;10.50;78.00;;;;;;605736;237;26586;-67
2022/05/29 03:10:20;;;;;;;2.65;1.40;;;10.50;78.20;;;;;;604971;234;26635;-67
2022/05/29 03:13:08;;;;;;;1.50;1.23;;;10.40;78.70;;;;;;605183;237;26647;-67
2022/05/29 03:15:53;;;;;;;2.33;1.48;;;10.50;78.60;;;;;;595626;237;26618;-67
2022/05/29 03:18:23;;;;;;;3.20;1.45;;;10.40;78.60;;;;;;601223;237;26934;-67
2022/05/29 03:20:51;;;;;;;1.62;1.42;;;10.50;79.10;;;;;;604286;238;26590;-68
2022/05/29 03:23:31;;;;;;;3.10;1.60;;;10.50;79.10;;;;;;604118;234;26651;-67
2022/05/29 03:25:59;;;;;;;3.35;1.27;;;10.50;79.10;;;;;;603041;238;26586;-68
2022/05/29 03:28:31;;;;;;;3.08;1.15;;;10.50;79.10;;;;;;604684;238;26595;-67
2022/05/29 03:30:58;;;;;;;1.70;1.37;;;10.50;79.50;;;;;;603513;238;26842;-67
2022/05/29 03:33:25;;;;;;;2.92;1.40;;;10.50;79.40;;;;;;604796;234;26621;-67
2022/05/29 03:36:07;;;;;;;2.00;1.45;;;10.50;79.50;;;;;;604893;237;26585;-67
2022/05/29 03:38:35;;;;;;;1.67;1.30;;;10.50;79.70;;;;;;604790;235;26587;-67
2022/05/29 03:41:04;;;;;;;1.45;1.30;;;10.50;79.60;;;;;;604864;237;26583;-67
2022/05/29 03:43:31;;;;;;;2.45;1.40;;;10.50;79.60;;;;;;603783;238;26844;-67
2022/05/29 03:45:58;;;;;;;2.95;1.70;;;10.50;79.90;;;;;;604637;238;26582;-67
2022/05/29 03:48:25;;;;;;;2.78;1.35;;;10.60;79.90;;;;;;604612;238;27297;-67
2022/05/29 03:50:52;;;;;;;2.25;1.10;;;10.50;80.10;;;;;;604594;237;26589;-67
2022/05/29 03:53:20;;;;;;;3.85;1.45;;;10.60;80.00;;;;;;604592;238;26591;-67
2022/05/29 03:55:48;;;;;;;1.40;1.30;;;10.60;80.10;;;;;;604642;238;26849;-67
2022/05/29 03:58:15;;;;;;;2.00;1.50;;;10.50;80.10;;;;;;604585;238;26600;-67
2022/05/29 04:00:43;;;;;;;2.80;1.42;;;10.60;80.10;;;;;;604668;237;26593;-67
2022/05/29 04:03:10;;;;;;;1.70;1.20;;;10.60;80.00;;;;;;604622;238;26816;-67
2022/05/29 04:05:37;;;;;;;2.45;1.40;;;10.60;80.30;;;;;;604583;238;26599;-67
2022/05/29 04:13:12;;;;;;;2.28;1.37;;;10.70;80.60;;;;;;604460;237;26601;-67
2022/05/29 04:15:45;;;;;;;2.87;1.70;;;10.70;80.60;;;;;;604617;237;26609;-68
2022/05/29 04:18:06;;;;;;;2.25;1.27;;;10.70;80.70;;;;;;605497;235;26546;-68
2022/05/29 04:20:34;;;;;;;1.20;1.10;;;10.60;81.00;;;;;;605805;232;26610;-67
2022/05/29 04:23:01;;;;;;;2.70;1.10;;;10.70;81.00;;;;;;605469;237;26575;-67
2022/05/29 04:25:28;;;;;;;2.22;1.23;;;10.70;80.90;;;;;;605444;236;26871;-68
2022/05/29 04:27:55;;;;;;;1.98;1.25;;;10.80;80.90;;;;;;605173;232;26847;-67
2022/05/29 04:30:23;;;;;;;2.10;1.40;;;10.90;80.70;;;;;;605132;237;26866;-67
2022/05/29 04:35:23;;;;;;;2.33;1.37;;;10.90;80.80;;;;;;605077;237;26646;-67
2022/05/29 04:37:51;;;;;;;1.60;1.20;;;11.10;80.10;;;;;;604901;238;26591;-67
2022/05/29 04:40:19;;;;;;;2.53;1.33;;;11.00;80.20;;;;;;604835;232;26587;-67
2022/05/29 04:42:46;;;;;;;1.75;1.58;;;11.00;80.20;;;;;;604824;238;26587;-67
2022/05/29 04:45:13;;;;;;;2.00;1.27;;;11.00;80.50;;;;;;604905;234;26610;-67
2022/05/29 04:47:41;;;;;;;2.55;1.20;;;11.00;80.60;;;;;;604880;238;26815;-67
2022/05/29 04:50:08;;;;;;;1.75;1.27;;;11.10;80.90;;;;;;604928;237;26580;-67
2022/05/29 04:52:36;;;;;;;1.23;1.00;;;11.00;80.50;;;;;;604944;237;26599;-67
2022/05/29 04:55:04;;;;;;;3.40;1.40;;;11.10;80.90;;;;;;604621;237;26623;-67
2022/05/29 04:57:31;;;;;;;1.45;1.08;;;11.10;80.90;;;;;;604609;238;26587;-67
2022/05/29 04:59:59;;;;;;;2.40;1.40;;;11.20;80.40;;;;;;604628;237;26804;-67
2022/05/29 05:02:26;;;;;;;2.33;1.30;;;11.40;80.40;;;;;;604604;238;26586;-68
2022/05/29 05:04:53;;;;;;;2.10;1.48;;;11.50;79.40;;;;;;604585;237;26914;-68
2022/05/29 05:07:20;;;;;;;1.33;1.15;;;11.40;80.00;;;;;;604659;237;26579;-68
2022/05/29 05:09:48;;;;;;;3.33;1.23;;;11.50;79.50;;;;;;604667;237;26790;-68
2022/05/29 05:12:15;;;;;;;2.83;1.12;;;11.60;79.50;;;;;;604621;237;26591;-68
2022/05/29 05:14:42;;;;;;;3.40;1.17;;;11.60;79.10;;;;;;604593;237;26611;-68
2022/05/29 05:17:10;;;;;;;1.33;1.20;;;11.70;78.40;;;;;;604601;238;26604;-68
2022/05/29 05:19:38;;;;;;;1.42;1.30;;;11.70;78.60;;;;;;604607;238;26587;-68
2022/05/29 05:22:08;;;;;;;2.70;1.37;;;11.70;78.30;;;;;;604487;237;26590;-68
2022/05/29 05:24:33;;;;;;;1.77;1.08;;;11.70;78.20;;;;;;604420;238;26626;-68
2022/05/29 05:27:00;;;;;;;1.23;1.10;;;11.90;78.40;;;;;;604658;237;26586;-68
2022/05/29 05:29:27;;;;;;;1.65;1.40;;;11.80;78.10;;;;;;605793;235;26846;-68
2022/05/29 05:31:55;;;;;;;3.30;1.48;;;11.90;78.00;;;;;;605815;236;26607;-68
2022/05/29 05:34:22;;;;;;;2.08;1.30;;;12.00;77.80;;;;;;605528;237;26848;-68
2022/05/29 05:36:49;;;;;;;2.58;1.30;;;11.90;77.80;;;;;;605447;237;26599;-68
2022/05/29 05:39:16;;;;;;;1.90;1.42;;;12.00;77.80;;;;;;605178;237;26867;-68
2022/05/29 05:41:43;;;;;;;2.95;1.50;;;12.10;77.70;;;;;;605179;237;26631;-68
2022/05/29 05:44:11;;;;;;;1.48;1.10;;;12.20;77.50;;;;;;605172;238;26878;-68
2022/05/29 05:46:38;;;;;;;1.98;1.40;;;12.20;77.40;;;;;;605147;237;26623;-68
2022/05/29 05:49:06;;;;;;;2.05;1.30;;;12.30;77.00;;;;;;604131;238;26745;-68
2022/05/29 05:51:33;;;;;;;1.67;1.20;;;12.20;77.00;;;;;;605219;237;26551;-68
2022/05/29 05:54:01;;;;;;;1.65;1.17;;;12.20;76.90;;;;;;605020;237;26575;-68
2022/05/29 05:56:29;;;;;;;2.40;1.10;;;12.20;76.90;;;;;;604896;238;26578;-68
2022/05/29 05:58:56;;;;;;;1.92;1.15;;;12.20;76.90;;;;;;604767;238;26602;-68
2022/05/29 06:01:23;;;;;;;1.83;1.20;;;12.10;77.10;;;;;;604927;237;26581;-68
2022/05/29 06:03:51;;;;;;;4.95;1.50;;;12.20;77.40;;;;;;604862;234;26888;-68
2022/05/29 06:06:18;;;;;;;1.58;1.10;;;12.20;77.20;;;;;;604507;238;26571;-68
2022/05/29 06:08:45;;;;;;;2.78;1.15;;;12.40;77.20;;;;;;604644;238;26822;-67
2022/05/29 06:11:13;;;;;;;2.35;1.20;;;12.30;76.90;;;;;;604655;237;26589;-67
2022/05/29 06:13:41;;;;;;;1.92;1.20;;;12.60;76.70;;;;;;604622;237;26844;-67
2022/05/29 06:16:09;;;;;;;1.35;1.00;;;12.50;76.00;;;;;;604607;238;26567;-66
2022/05/29 06:18:35;;;;;;;1.42;1.33;;;12.60;76.80;;;;;;604579;238;26807;-67
2022/05/29 06:21:02;;;;;;;1.20;1.10;;;12.50;76.60;;;;;;604567;237;26586;-67
2022/05/29 06:23:29;;;;;;;2.75;1.30;;;12.30;76.80;;;;;;604436;238;26833;-67
2022/05/29 06:25:56;;;;;;;2.62;1.10;;;12.10;77.50;;;;;;604624;237;26581;-68
2022/05/29 06:28:23;;;;;;;1.35;1.25;;;12.20;77.20;;;;;;604648;237;26829;-68
2022/05/29 06:30:51;;;;;;;2.87;1.30;;;12.10;77.50;;;;;;604592;237;26591;-67
2022/05/29 06:33:18;;;;;;;1.95;1.30;;;12.30;77.80;;;;;;604567;237;26593;-67
2022/05/29 06:35:46;;;;;;;1.67;1.30;;;12.40;76.70;;;;;;604604;238;26579;-67
2022/05/29 06:38:14;;;;;;;2.03;1.15;;;12.60;76.30;;;;;;604634;237;26584;-67
2022/05/29 06:40:45;;;;;;;1.42;1.30;;;12.50;76.20;;;;;;605614;235;26807;-67
2022/05/29 06:43:11;;;;;;;1.20;1.10;;;12.80;75.00;;;;;;605548;234;26581;-67
2022/05/29 06:45:36;;;;;;;1.37;1.12;;;12.70;74.90;;;;;;605799;237;26564;-67
2022/05/29 06:48:04;;;;;;;2.28;1.10;;;12.90;74.60;;;;;;605827;237;26802;-67
2022/05/29 06:50:31;;;;;;;1.67;1.27;;;13.10;73.90;;;;;;605592;236;26598;-67
2022/05/29 06:52:58;;;;;;;2.45;1.40;;;13.10;73.90;;;;;;605521;237;26840;-67
2022/05/29 06:55:26;;;;;;;3.53;1.23;;;13.30;73.50;;;;;;605530;237;26604;-67
2022/05/29 06:57:54;;;;;;;2.37;1.17;;;13.70;71.60;;;;;;605455;238;26638;-67
2022/05/29 07:08:13;;;;;;;3.72;1.42;;;13.60;71.10;;;;;;604906;237;26599;-67
2022/05/29 07:10:40;;;;;;;1.12;1.10;;;13.70;71.00;;;;;;604899;237;26587;-67
2022/05/29 07:13:09;;;;;;;2.33;1.20;;;13.90;70.80;;;;;;604804;234;26582;-67
2022/05/29 07:15:36;;;;;;;4.47;1.40;;;13.90;70.80;;;;;;604832;237;26574;-67
2022/05/29 07:18:03;;;;;;;1.12;1.02;;;13.90;70.60;;;;;;604627;237;26588;-67
2022/05/29 07:20:30;;;;;;;1.70;1.30;;;14.00;69.60;;;;;;604646;237;27239;-67
2022/05/29 07:22:59;;;;;;;1.35;1.15;;;14.00;70.10;;;;;;604526;238;26582;-67
2022/05/29 07:25:24;;;;;;;3.28;1.40;;;14.10;69.70;;;;;;604476;237;26817;-67
2022/05/29 07:27:52;;;;;;;1.87;1.30;;;13.90;69.80;;;;;;604620;237;26574;-67
2022/05/29 07:30:19;;;;;;;2.20;1.40;;;13.50;70.20;;;;;;604671;237;26935;-67
2022/05/29 07:32:47;;;;;;;2.65;1.40;;;13.30;70.50;;;;;;604621;237;26594;-67
2022/05/29 07:35:16;;;;;;;1.65;1.10;;;13.30;71.40;;;;;;604632;237;26801;-68
2022/05/29 07:37:41;;;;;;;2.20;1.37;;;13.40;71.10;;;;;;604415;238;26580;-67
2022/05/29 07:40:09;;;;;;;2.55;1.50;;;13.40;70.40;;;;;;604559;238;26555;-67
2022/05/29 07:45:09;;;;;;;1.20;1.10;;;13.90;69.90;;;;;;604593;234;26613;-67
2022/05/29 07:47:36;;;;;;;2.58;1.40;;;14.10;67.90;;;;;;604375;237;26609;-66
2022/05/29 07:50:04;;;;;;;2.20;1.00;;;14.10;67.80;;;;;;604455;238;26602;-66
2022/05/29 07:52:32;;;;;;;2.28;1.30;;;14.60;67.40;;;;;;605713;235;26589;-66
2022/05/29 07:55:00;;;;;;;2.20;1.33;;;14.90;64.60;;;;;;605821;237;26900;-66
2022/05/29 07:57:27;;;;;;;3.12;1.23;;;14.90;64.70;;;;;;605542;237;26870;-67
2022/05/29 07:59:54;;;;;;;1.85;1.20;;;15.40;62.80;;;;;;605496;237;26597;-67
2022/05/29 08:02:21;;;;;;;1.77;1.30;;;15.60;62.10;;;;;;605096;237;27415;-67
2022/05/29 08:04:50;;;;;;;1.75;1.25;;;15.70;62.30;;;;;;605111;233;26650;-67
2022/05/29 08:07:17;;;;;;;1.55;1.35;;;15.70;62.30;;;;;;605203;237;26859;-67
2022/05/29 08:09:44;;;;;;;2.83;1.30;;;15.20;63.50;;;;;;605092;237;26646;-67
2022/05/29 08:12:12;;;;;;;2.03;1.17;;;15.00;65.60;;;;;;605151;238;27022;-67
2022/05/29 08:14:39;;;;;;;1.67;1.35;;;14.70;67.90;;;;;;605229;237;26579;-68
2022/05/29 08:17:09;;;;;;;1.90;1.20;;;14.80;69.00;;;;;;605231;238;26805;-68
2022/05/29 08:19:34;;;;;;;2.03;1.33;;;15.00;68.90;;;;;;605090;238;26558;-68
2022/05/29 08:22:00;;;;;;;1.25;1.15;;;15.30;67.70;;;;;;605249;238;26798;-68
2022/05/29 08:32:09;;;;;;;2.50;1.10;;;15.30;63.30;;;;;;604536;237;26583;-66
2022/05/29 08:34:37;;;;;;;4.20;1.40;;;15.50;62.40;;;;;;604584;234;26619;-65
2022/05/29 08:37:04;;;;;;;1.10;1.00;;;15.50;62.40;;;;;;604578;237;26606;-66
2022/05/29 08:39:32;;;;;;;2.62;1.27;;;15.70;61.30;;;;;;604587;238;26590;-65
2022/05/29 08:41:58;;;;;;;2.67;1.33;;;16.00;60.70;;;;;;604520;238;26797;-65
2022/05/29 08:44:37;;;;;;;2.08;1.20;;;16.20;59.80;;;;;;604544;238;26610;-65
2022/05/29 08:47:04;;;;;;;1.50;1.33;;;16.20;59.50;;;;;;604534;238;26826;-66
2022/05/29 08:49:31;;;;;;;3.55;1.10;;;16.40;60.40;;;;;;604659;237;26597;-65
2022/05/29 08:52:05;;;;;;;3.25;1.40;;;16.50;60.30;;;;;;604531;237;26579;-66
2022/05/29 08:54:42;;;;;;;2.17;1.40;;;16.50;59.90;;;;;;604507;238;27043;-65
2022/05/29 08:57:15;;;;;;;1.30;1.00;;;16.60;58.70;;;;;;612699;234;26673;-66
2022/05/29 08:59:47;;;;;;;1.92;1.40;;;16.80;58.20;;;;;;613110;234;26702;-65
2022/05/29 09:02:19;;;;;;;1.60;1.17;;;16.80;58.20;;;;;;613700;234;26625;-66
2022/05/29 09:04:47;;;;;;;1.98;1.17;;;17.40;57.40;;;;;;615080;232;26664;-66
2022/05/29 09:07:17;;;;;;;1.35;1.25;;;17.70;56.40;;;;;;614854;234;26601;-65
2022/05/29 09:09:49;;;;;;;2.03;1.25;;;17.60;56.50;;;;;;614745;234;26621;-65
2022/05/29 09:12:19;;;;;;;1.00;0.90;;;17.50;56.40;;;;;;614566;234;27239;-66
2022/05/29 09:14:56;;;;;;;2.15;1.37;;;16.90;55.90;;;;;;614250;233;26682;-66
2022/05/29 09:17:31;;;;;;;3.75;1.55;;;16.30;57.10;;;;;;614144;234;26636;-66
2022/05/29 09:20:01;;;;;;;1.00;0.93;;;15.90;57.10;;;;;;614325;234;26870;-66
2022/05/29 09:22:31;;;;;;;1.17;1.08;;;15.40;59.00;;;;;;614107;234;26857;-66
2022/05/29 09:25:04;;;;;;;2.92;1.60;;;15.20;60.60;;;;;;613975;234;27282;-66
2022/05/29 09:27:31;;;;;;;1.40;1.30;;;15.00;64.50;;;;;;614115;234;26571;-66
2022/05/29 09:29:59;;;;;;;1.45;1.25;;;15.20;65.40;;;;;;614208;234;26575;-65
2022/05/29 09:32:27;;;;;;;2.20;1.55;;;15.20;65.40;;;;;;614134;234;26584;-66
2022/05/29 09:34:57;;;;;;;2.12;1.48;;;15.50;64.00;;;;;;614163;234;26599;-66
2022/05/29 09:37:34;;;;;;;2.35;1.42;;;15.50;63.90;;;;;;614315;234;26551;-66
2022/05/29 09:40:01;;;;;;;1.45;1.35;;;15.80;62.50;;;;;;613468;234;26809;-66
2022/05/29 09:42:31;;;;;;;1.60;1.10;;;16.60;59.90;;;;;;613909;234;26575;-66
2022/05/29 09:45:06;;;;;;;1.48;1.37;;;16.60;59.90;;;;;;613444;233;26906;-66
2022/05/29 09:50:07;;;;;;;3.15;1.52;;;17.40;58.10;;;;;;614220;234;26841;-66
2022/05/29 09:52:35;;;;;;;2.08;1.67;;;17.10;55.80;;;;;;613725;234;26657;-66
2022/05/29 09:55:04;;;;;;;1.12;1.12;;;16.20;57.30;;;;;;613882;233;26887;-66
2022/05/29 09:57:33;;;;;;;2.03;1.30;;;16.10;57.50;;;;;;613467;234;26626;-67
2022/05/29 10:00:01;;;;;;;1.30;1.20;;;15.60;59.20;;;;;;607546;234;26641;-69
2022/05/29 10:02:31;;;;;;;2.53;1.60;;;15.00;68.20;;;;;;606063;235;26587;-68
2022/05/29 10:04:59;;;;;;;0.85;0.85;;;14.90;68.00;;;;;;603834;234;26811;-68
2022/05/29 10:07:28;;;;;;;1.42;1.33;;;14.50;73.80;;;;;;605836;235;26661;-68
2022/05/29 10:10:05;;;;;;;1.17;1.02;;;14.30;73.70;;;;;;608947;235;27274;-68
2022/05/29 10:12:37;;;;;;;1.10;1.10;;;14.40;72.70;;;;;;606783;235;26619;-67
2022/05/29 10:15:06;;;;;;;1.25;1.15;;;14.90;71.70;;;;;;608156;233;26626;-67
2022/05/29 10:17:34;;;;;;;1.62;1.35;;;15.30;72.50;;;;;;604093;234;26672;-68
2022/05/29 10:20:01;;;;;;;1.80;1.35;;;15.20;72.50;;;;;;604690;234;26574;-67
2022/05/29 10:22:31;;;;;;;1.77;1.40;;;15.50;72.00;;;;;;602229;237;26881;-67
2022/05/29 10:25:02;;;;;;;1.55;1.40;;;15.40;69.80;;;;;;603769;233;26666;-72
2022/05/29 10:27:31;;;;;;;4.45;1.60;;;15.20;71.20;;;;;;603004;237;26800;-68
2022/05/29 10:30:09;;;;;;;4.00;1.30;;;15.40;69.10;;;;;;605484;234;26635;-66
2022/05/29 10:32:36;;;;;;;2.72;1.42;;;15.40;67.00;;;;;;604291;236;26818;-67
2022/05/29 10:35:17;;;;;;;1.55;1.15;;;16.20;62.50;;;;;;603737;235;26604;-68
2022/05/29 10:37:45;;;;;;;1.10;1.05;;;16.50;62.90;;;;;;604725;233;26598;-68
2022/05/29 10:40:26;;;;;;;1.15;0.90;;;16.70;61.60;;;;;;604521;235;26591;-68
2022/05/29 10:42:53;;;;;;;1.70;1.10;;;16.70;61.60;;;;;;606380;235;27065;-67
2022/05/29 10:45:21;;;;;;;1.75;1.17;;;17.10;59.10;;;;;;603754;236;26610;-68
2022/05/29 10:47:59;;;;;;;1.55;1.45;;;16.70;57.80;;;;;;604076;232;26578;-67
2022/05/29 10:50:34;;;;;;;1.40;1.30;;;16.50;57.90;;;;;;604101;233;26597;-67
2022/05/29 10:53:07;;;;;;;2.37;1.33;;;16.50;57.90;;;;;;606591;234;26622;-67
2022/05/29 10:55:51;;;;;;;1.27;1.17;;;16.40;57.90;;;;;;609254;235;27168;-67
2022/05/29 10:58:36;;;;;;;1.08;1.08;;;16.50;58.70;;;;;;602190;233;26664;-67
2022/05/29 11:03:17;;;;;;;1.12;1.00;;;16.50;58.30;;;;;;614723;234;26628;-68
2022/05/29 11:03:42;;;;;;;1.25;1.05;;;16.40;58.80;;;;;;612196;234;26680;-67
2022/05/29 11:06:15;;;;;;;5.45;1.45;;;16.30;59.10;;;;;;606842;234;26859;-69
2022/05/29 11:09:04;;;;;;;3.03;1.60;;;16.70;58.10;;;;;;603541;236;26632;-68
2022/05/29 11:11:34;;;;;;;2.58;1.62;;;17.10;56.90;;;;;;603221;234;26672;-69
2022/05/29 11:14:08;;;;;;;4.85;1.40;;;17.10;56.40;;;;;;609815;235;26654;-68
2022/05/29 11:16:37;;;;;;;5.18;1.73;;;17.60;55.80;;;;;;607117;236;26577;-68
2022/05/29 11:19:28;;;;;;;0.98;0.98;;;18.10;53.30;;;;;;602116;236;26879;-66
2022/05/29 11:22:13;;;;;;;3.17;1.40;;;18.10;53.30;;;;;;603782;236;26597;-68
2022/05/29 11:24:48;;;;;;;3.22;1.40;;;18.20;53.00;;;;;;606574;235;26661;-67
2022/05/29 11:27:21;;;;;;;3.45;1.60;;;18.40;52.00;;;;;;605610;234;26640;-67
2022/05/29 11:29:52;;;;;;;2.90;1.35;;;18.30;52.10;;;;;;608395;234;26604;-67
2022/05/29 11:32:22;;;;;;;2.05;1.60;;;18.50;52.20;;;;;;605882;234;26639;-68
2022/05/29 11:34:56;;;;;;;1.45;1.30;;;18.00;54.30;;;;;;605673;234;26664;-68
2022/05/29 11:37:27;;;;;;;1.30;1.05;;;16.30;57.20;;;;;;606333;234;26646;-68
2022/05/29 11:40:01;;;;;;;1.77;1.45;;;16.30;57.20;;;;;;603275;236;26869;-68
2022/05/29 11:42:33;;;;;;;1.73;1.40;;;15.80;58.90;;;;;;604575;235;26585;-68
2022/05/29 11:45:13;;;;;;;3.03;1.33;;;15.50;61.20;;;;;;607721;235;26690;-68
2022/05/29 11:53:03;;;;;;;2.95;1.50;;;15.70;63.60;;;;;;603989;236;26579;-68
2022/05/29 11:55:30;;;;;;;1.40;1.27;;;15.70;63.60;;;;;;606218;235;26859;-68
2022/05/29 11:58:02;;;;;;;2.20;1.10;;;15.70;63.30;;;;;;611913;235;26579;-68
2022/05/29 12:00:31;;;;;;;1.30;1.20;;;16.10;60.00;;;;;;612212;235;26583;-67
2022/05/29 12:03:04;;;;;;;1.27;1.10;;;16.00;58.70;;;;;;612233;235;26576;-67
2022/05/29 12:05:37;;;;;;;2.00;1.40;;;16.40;59.00;;;;;;611951;235;26628;-66
2022/05/29 12:08:08;;;;;;;1.25;1.20;;;16.60;58.00;;;;;;606930;235;26657;-67
2022/05/29 12:10:51;;;;;;;3.97;1.20;;;16.60;58.00;;;;;;603605;236;26878;-67
2022/05/29 12:13:19;;;;;;;2.22;1.50;;;18.10;56.40;;;;;;604290;235;26678;-68
2022/05/29 12:15:47;;;;;;;1.15;0.95;;;18.60;54.60;;;;;;606430;235;26849;-68
2022/05/29 12:18:15;;;;;;;1.05;0.95;;;18.60;54.60;;;;;;606370;235;26605;-68
2022/05/29 12:20:43;;;;;;;1.33;1.20;;;18.80;54.20;;;;;;606555;235;26635;-67
2022/05/29 12:23:22;;;;;;;1.27;1.17;;;19.30;52.90;;;;;;607220;235;26632;-68
2022/05/29 12:26:08;;;;;;;1.05;0.98;;;19.50;52.10;;;;;;605930;235;26563;-68
2022/05/29 12:28:41;;;;;;;1.12;0.93;;;20.10;51.30;;;;;;612309;234;26612;-69
2022/05/29 12:31:11;;;;;;;1.52;1.27;;;20.00;51.30;;;;;;607036;235;26642;-68
2022/05/29 12:33:38;;;;;;;3.95;1.60;;;20.30;50.40;;;;;;604110;236;26869;-68
2022/05/29 12:36:12;;;;;;;2.65;1.33;;;19.60;50.50;;;;;;604886;235;26611;-68
2022/05/29 12:38:43;;;;;;;0.93;0.90;;;19.60;50.50;;;;;;604974;235;26592;-69
2022/05/29 12:41:22;;;;;;;1.10;1.10;;;19.20;51.20;;;;;;603903;235;26636;-69
2022/05/29 12:44:26;;;;;;;2.28;1.10;;;19.30;51.40;;;;;;613383;234;26606;-69
2022/05/29 12:47:10;;;;;;;1.12;1.10;;;19.20;51.50;;;;;;601637;235;26619;-69
2022/05/29 12:49:43;;;;;;;1.58;1.20;;;18.80;52.70;;;;;;609101;234;26631;-69
2022/05/29 12:52:22;;;;;;;1.98;1.20;;;18.70;52.70;;;;;;605129;235;26581;-71
2022/05/29 12:55:03;;;;;;;3.33;1.27;;;19.70;52.00;;;;;;602186;236;26964;-70
2022/05/29 12:57:32;;;;;;;1.33;1.23;;;20.30;51.80;;;;;;604417;235;26649;-69
2022/05/29 13:00:02;;;;;;;1.15;1.00;;;20.30;51.20;;;;;;601518;236;26561;-69
2022/05/29 13:02:44;;;;;;;4.95;1.95;;;19.50;51.60;;;;;;605886;235;26870;-69
2022/05/29 13:05:33;;;;;;;5.60;2.30;;;19.20;52.10;;;;;;604023;235;26609;-70
2022/05/29 13:08:10;;;;;;;12.50;2.80;;;18.50;52.80;;;;;;594909;239;26836;-71
2022/05/29 13:10:37;;;;;;;10.73;2.85;;;18.20;53.00;;;;;;606669;235;26547;-70
2022/05/29 13:13:08;;;;;;;1.98;1.62;;;17.50;54.10;;;;;;602444;236;26848;-71
2022/05/29 13:15:36;;;;;;;5.60;2.65;;;16.80;55.30;;;;;;606596;236;26812;-69
2022/05/29 13:19:03;;;;;;;6.22;2.60;;;16.60;56.10;;;;;;604713;237;26550;-74
2022/05/29 13:21:10;;;;;;;5.70;2.40;;;16.00;57.30;;;;;;608893;235;26596;-74
2022/05/29 13:23:44;;;;;;;4.55;1.85;;;15.70;58.60;;;;;;604322;233;26862;-74
2022/05/29 13:26:11;;;;;;;5.47;2.10;;;15.70;57.80;;;;;;605411;235;26617;-73
2022/05/29 13:28:55;;;;;;;4.82;2.20;;;15.70;57.50;;;;;;608867;235;26586;-69
2022/05/29 13:31:21;;;;;;;1.75;1.27;;;15.70;57.40;;;;;;603407;235;26641;-70
2022/05/29 13:33:50;;;;;;;5.90;2.17;;;15.50;57.80;;;;;;606371;234;26892;-70
2022/05/29 13:36:30;;;;;;;2.37;1.60;;;15.80;57.40;;;;;;604443;235;26586;-70
2022/05/29 13:38:57;;;;;;;4.60;1.77;;;15.80;57.50;;;;;;606462;235;26610;-70
2022/05/29 13:41:26;;;;;;;2.85;1.65;;;15.80;56.70;;;;;;605562;235;26849;-71